Home   Weather   Belgium   Mechelen   Past weeks
Flag for Belgium

Past Weather in Mechelen, Antwerp, Belgium — Yesterday and Last 2 Weeks

Currently: 46 °F. Clear. (Weather station: Brussels National Airport, Belgium). See more current weather

Past Weather in Mechelen — Graph

°F

Mechelen Temperature Yesterday

Maximum temperature yesterday: 57 °F (at 3:20 pm)
Minimum temperature yesterday: 41 °F (at 6:20 am)
Average temperature yesterday: 49 °F

High & Low Weather Summary for the Past Weeks

 TemperatureHumidityPressure
High64 °F (Oct 19, 1:20 pm)100% (Oct 10, 1:20 am)30.36 "Hg (Oct 10, 1:20 am)
Low39 °F (Oct 10, 5:50 am)10% (Oct 11, 12:20 pm)29.18 "Hg (Oct 21, 4:20 am)
Average52 °F81%30.13 "Hg
* Reported Oct 9 8:20 pm — Oct 24 8:50 pm, Mechelen. Weather by CustomWeather, © 2021

Note: Actual official high and low records may vary slightly from our data, if they occured in-between our weather recording intervals... More about our weather records

Mechelen Weather History for the Previous 24 Hours

Scroll right to see more
 ConditionsComfort  
Time TempWeatherWind HumidityBarometerVisibility
8:50 pm
Sun, Oct 24
46 °FClear.3 mph82%30.12 "Hg10 mi
8:20 pm46 °FClear.3 mph82%30.09 "Hg10 mi
7:50 pm48 °FClear.5 mph76%30.09 "Hg10 mi
7:20 pm50 °FClear.7 mph76%30.09 "Hg10 mi
6:50 pm48 °FClear.5 mph82%30.12 "Hg10 mi
6:20 pm52 °FSunny.6 mph72%30.12 "Hg10 mi
5:50 pm55 °FPassing clouds.6 mph63%30.12 "HgN/A
5:20 pm55 °FSunny.5 mph67%30.12 "Hg10 mi
4:50 pm57 °FSunny.8 mph55%30.12 "Hg10 mi
4:20 pm57 °FPassing clouds.7 mph59%30.12 "HgN/A
3:50 pm55 °FPassing clouds.7 mph63%30.15 "HgN/A
3:20 pm55 °FPassing clouds.7 mph59%30.15 "HgN/A
2:50 pm55 °FSunny.8 mph63%30.18 "Hg10 mi
2:20 pm55 °FSunny.8 mph59%30.18 "Hg10 mi
1:50 pm55 °FSunny.8 mph63%30.18 "Hg10 mi
1:20 pm54 °FPassing clouds.6 mph63%30.18 "HgN/A
12:50 pm54 °FPassing clouds.8 mph67%30.21 "HgN/A
12:20 pm52 °FSunny.7 mph67%30.21 "Hg10 mi
11:50 am50 °FSunny.9 mph76%30.21 "Hg10 mi
11:20 am48 °FSunny.9 mph76%30.21 "Hg10 mi
10:50 am46 °FSunny.10 mph76%30.21 "Hg10 mi
10:20 am45 °FSunny.10 mph76%30.21 "Hg10 mi
9:50 am45 °FSunny.9 mph76%30.21 "Hg10 mi
9:20 am45 °FSunny.8 mph76%30.21 "Hg10 mi
8:50 am43 °FSunny.8 mph81%30.21 "Hg10 mi
8:20 am43 °FSunny.7 mph81%30.24 "Hg10 mi
7:50 am43 °FClear.7 mph81%30.24 "Hg10 mi
7:20 am43 °FClear.8 mph81%30.24 "Hg10 mi
6:50 am43 °FClear.9 mph81%30.24 "Hg10 mi
6:20 am45 °FClear.8 mph81%30.27 "Hg10 mi
5:50 am45 °FClear.8 mph81%30.27 "Hg10 mi
5:20 am45 °FClear.8 mph81%30.27 "Hg10 mi
4:50 am45 °FClear.7 mph81%30.27 "Hg10 mi
4:20 am45 °FClear.7 mph81%30.27 "Hg10 mi
3:50 am45 °FClear.7 mph87%30.30 "Hg10 mi
3:20 am45 °FClear.6 mph87%30.30 "Hg10 mi
2:50 am45 °FClear.6 mph87%30.30 "Hg10 mi
2:20 am43 °FClear.5 mph87%30.30 "Hg10 mi
1:50 am45 °FClear.6 mph87%30.33 "Hg10 mi
1:20 am46 °FClear.7 mph82%30.33 "Hg10 mi
12:50 am46 °FClear.6 mph87%30.33 "Hg10 mi
12:20 am46 °FPassing clouds.6 mph87%30.33 "HgN/A
11:50 pm
Sat, Oct 23
46 °FPassing clouds.6 mph87%30.33 "HgN/A
11:20 pm48 °FPassing clouds.6 mph87%30.33 "HgN/A
10:50 pm48 °FPassing clouds.5 mph87%30.33 "HgN/A
10:20 pm50 °FPassing clouds.5 mph82%30.33 "HgN/A
Weather by CustomWeather, © 2021

See weather overview